createdAt,value
2018-11-06T00:00:17.534Z,62.7
2018-11-06T00:05:16.782Z,59.6
2018-11-06T00:10:16.811Z,56.2
2018-11-06T00:15:16.626Z,59.8
2018-11-06T00:20:16.664Z,55
2018-11-06T00:25:17.502Z,52
2018-11-06T00:30:17.334Z,50.4
2018-11-06T00:35:17.446Z,51.1
2018-11-06T00:40:17.450Z,66.1
2018-11-06T00:45:17.263Z,48.7
2018-11-06T00:50:17.078Z,40.8
2018-11-06T00:55:16.898Z,48.9
2018-11-06T01:00:16.697Z,47.1
2018-11-06T01:05:17.723Z,45.5
2018-11-06T01:10:16.777Z,32.5
2018-11-06T01:15:16.640Z,41.3
2018-11-06T01:20:16.605Z,31.5
2018-11-06T01:25:17.461Z,41.4
2018-11-06T01:30:17.498Z,40.6
2018-11-06T01:35:17.874Z,39.7
2018-11-06T01:40:16.870Z,45.8
2018-11-06T01:45:16.675Z,51.6
2018-11-06T01:50:17.706Z,38.9
2018-11-06T01:55:17.487Z,44.3
2018-11-06T02:00:17.365Z,46.5
2018-11-06T02:05:17.182Z,51.2
2018-11-06T02:10:17.181Z,37.5
2018-11-06T02:15:17.078Z,57.8
2018-11-06T02:20:17.082Z,69
2018-11-06T02:25:16.842Z,57.6
2018-11-06T02:30:16.641Z,59.3
2018-11-06T02:35:17.826Z,60.7
2018-11-06T02:40:16.812Z,56.5
2018-11-06T02:45:16.642Z,62.7
2018-11-06T02:50:17.518Z,66.9
2018-11-06T02:55:17.330Z,60.2
2018-11-06T03:00:17.133Z,63.4
2018-11-06T03:05:16.933Z,64.2
2018-11-06T03:10:16.967Z,65.7
2018-11-06T03:15:16.977Z,53.2
2018-11-06T03:20:16.997Z,68.7
2018-11-06T03:25:16.838Z,66.3
2018-11-06T03:30:16.611Z,49.4
2018-11-06T03:35:18.242Z,64.9
2018-11-06T03:40:17.254Z,72
2018-11-06T03:45:17.074Z,66
2018-11-06T03:50:16.903Z,67.1
2018-11-06T03:55:16.762Z,64.8
2018-11-06T04:00:16.555Z,47
2018-11-06T04:05:17.725Z,62.1
2018-11-06T04:10:16.713Z,63.9
2018-11-06T04:15:17.621Z,51.8
2018-11-06T04:20:16.593Z,60.6
2018-11-06T04:25:17.409Z,54.8
2018-11-06T04:30:17.190Z,47.7
2018-11-06T04:35:16.970Z,53.1
2018-11-06T04:40:16.946Z,42.7
2018-11-06T04:45:16.774Z,54.5
2018-11-06T04:50:16.618Z,49.2
2018-11-06T04:55:17.526Z,50.3
2018-11-06T05:00:17.318Z,52.7
2018-11-06T05:05:17.095Z,35.8
2018-11-06T05:10:17.122Z,50.7
2018-11-06T05:15:16.925Z,48.5
2018-11-06T05:20:16.966Z,42.3
2018-11-06T05:25:16.809Z,42.4
2018-11-06T05:30:16.724Z,44.6
2018-11-06T05:35:16.562Z,21.9
2018-11-06T05:40:16.794Z,36.7
2018-11-06T05:45:16.605Z,42
2018-11-06T05:50:17.522Z,44.2
2018-11-06T05:55:17.390Z,41.4
2018-11-06T06:00:17.247Z,40
2018-11-06T06:05:17.118Z,37.9
2018-11-06T06:10:17.421Z,41.4
2018-11-06T06:15:17.350Z,37.7
2018-11-06T06:20:17.312Z,31.6
2018-11-06T06:25:17.816Z,37
2018-11-06T06:30:16.667Z,37.8
2018-11-06T06:35:17.827Z,35.3
2018-11-06T06:40:17.315Z,31.2
2018-11-06T06:45:17.518Z,28.4
2018-11-06T06:50:17.294Z,32.7
2018-11-06T06:55:17.188Z,37.7
2018-11-06T07:00:17.447Z,50.9
2018-11-06T07:05:17.370Z,35.5
2018-11-06T07:10:17.342Z,36.3
2018-11-06T07:15:17.146Z,38.1
2018-11-06T07:20:17.109Z,37.8
2018-11-06T07:25:16.970Z,35.4
2018-11-06T07:30:16.797Z,42.7
2018-11-06T07:35:16.753Z,35.3
2018-11-06T07:40:17.080Z,35.1
2018-11-06T07:45:17.263Z,30.7
2018-11-06T07:50:17.126Z,36
2018-11-06T07:55:17.367Z,33
2018-11-06T08:00:17.372Z,33.6
2018-11-06T08:05:17.365Z,31.9
2018-11-06T08:10:17.624Z,40.5
2018-11-06T08:15:17.529Z,31.1
2018-11-06T08:20:16.890Z,32
2018-11-06T08:25:16.682Z,35.5
2018-11-06T08:30:17.772Z,32.1
2018-11-06T08:35:16.590Z,30.5
2018-11-06T08:40:16.558Z,25
2018-11-06T08:45:17.618Z,31.4
2018-11-06T08:50:17.978Z,31.6
2018-11-06T08:55:16.846Z,32.7
2018-11-06T09:00:16.658Z,34.4
2018-11-06T09:05:17.657Z,36.3
2018-11-06T09:10:16.845Z,39.3
2018-11-06T09:15:16.739Z,34.3
2018-11-06T09:20:16.726Z,44.5
2018-11-06T09:25:17.630Z,28.5
2018-11-06T09:30:17.451Z,47.3
2018-11-06T09:35:17.254Z,36.1
2018-11-06T09:40:17.415Z,49
2018-11-06T09:45:17.276Z,52.1
2018-11-06T09:50:17.206Z,51.1
2018-11-06T09:55:17.064Z,51.2
2018-11-06T10:00:16.978Z,40.2
2018-11-06T10:05:17.381Z,50.5
2018-11-06T10:10:17.506Z,50.4
2018-11-06T10:15:17.418Z,47.5
2018-11-06T10:20:17.433Z,56
2018-11-06T10:25:17.337Z,54.2
2018-11-06T10:30:17.163Z,55.1
2018-11-06T10:35:17.093Z,66.4
2018-11-06T10:40:17.119Z,50.1
2018-11-06T10:45:16.937Z,50.8
2018-11-06T10:50:16.745Z,49.9
2018-11-06T10:55:17.817Z,48
2018-11-06T11:00:16.879Z,40.2
2018-11-06T11:05:16.867Z,46.4
2018-11-06T11:10:16.990Z,48.6
2018-11-06T11:15:16.986Z,47.4
2018-11-06T11:20:17.104Z,41.2
2018-11-06T11:25:17.361Z,42.8
2018-11-06T11:30:17.237Z,47.6
2018-11-06T11:35:17.194Z,47.9
2018-11-06T11:40:17.339Z,34.7
2018-11-06T11:45:17.686Z,48.1
2018-11-06T11:50:17.791Z,50.7
2018-11-06T11:55:16.734Z,33.3
2018-11-06T12:00:17.675Z,52.1
2018-11-06T12:05:17.602Z,35.3
2018-11-06T12:10:16.722Z,48.3
2018-11-06T12:15:17.835Z,55.9
2018-11-06T12:20:16.861Z,51.7
2018-11-06T12:25:17.171Z,37
2018-11-06T12:30:17.102Z,53.9
2018-11-06T12:35:17.574Z,47.7
2018-11-06T12:40:16.638Z,47.4
2018-11-06T12:45:17.582Z,47.9
2018-11-06T12:50:17.599Z,45.7
2018-11-06T12:55:17.013Z,46.2
2018-11-06T13:00:17.226Z,49.3
2018-11-06T13:05:17.501Z,51.8
2018-11-06T13:10:17.859Z,46.5
2018-11-06T13:15:17.869Z,41
2018-11-06T13:20:16.950Z,43.8
2018-11-06T13:25:16.891Z,43.6
2018-11-06T13:30:16.742Z,42.6
2018-11-06T13:35:17.904Z,38.5
2018-11-06T13:40:17.103Z,39.2
2018-11-06T13:45:17.766Z,38.3
2018-11-06T13:50:17.408Z,37.8
2018-11-06T13:55:17.335Z,33.5
2018-11-06T14:00:17.412Z,38.2
2018-11-06T14:05:17.360Z,37.3
2018-11-06T14:10:17.703Z,44.1
2018-11-06T14:15:17.681Z,35
2018-11-06T14:20:17.058Z,35.8
2018-11-06T14:25:16.975Z,33.6
2018-11-06T14:30:16.952Z,37
2018-11-06T14:35:16.922Z,35.5
2018-11-06T14:40:16.999Z,47.4
2018-11-06T14:45:17.110Z,33.4
2018-11-06T14:50:17.102Z,43.1
2018-11-06T14:55:17.247Z,33.9
2018-11-06T15:00:17.134Z,30.3
2018-11-06T15:05:17.343Z,33.5
2018-11-06T15:10:17.650Z,30.9
2018-11-06T15:15:17.876Z,33.4
2018-11-06T15:20:17.263Z,32.1
2018-11-06T15:25:17.362Z,33.5
2018-11-06T15:30:17.566Z,31.2
2018-11-06T15:35:17.448Z,28
2018-11-06T15:40:17.770Z,32.7
2018-11-06T15:45:16.935Z,40
2018-11-06T15:50:16.923Z,30.1
2018-11-06T15:55:17.118Z,33.5
2018-11-06T16:00:17.019Z,20.8
2018-11-06T16:05:16.951Z,19.8
2018-11-06T16:10:17.046Z,24
2018-11-06T16:15:17.180Z,25
2018-11-06T16:20:17.655Z,30.7
2018-11-06T16:25:17.649Z,26.5
2018-11-06T16:30:17.930Z,21
2018-11-06T16:35:17.045Z,26.6
2018-11-06T16:40:17.158Z,23.6
2018-11-06T16:45:17.179Z,24.4
2018-11-06T16:50:17.122Z,24.1
2018-11-06T16:55:17.210Z,25.4
2018-11-06T17:00:17.498Z,25.7
2018-11-06T17:05:16.890Z,25.1
2018-11-06T17:10:17.038Z,27.6
2018-11-06T17:15:17.271Z,15
2018-11-06T17:20:17.558Z,28.3
2018-11-06T17:25:17.662Z,26.1
2018-11-06T17:30:17.655Z,21.6
2018-11-06T17:35:17.687Z,29.9
2018-11-06T17:40:16.758Z,30.8
2018-11-06T17:45:16.893Z,30
2018-11-06T17:50:17.063Z,30.6
2018-11-06T17:55:17.223Z,32.8
2018-11-06T18:00:17.789Z,52
2018-11-06T18:05:16.627Z,30.9
2018-11-06T18:10:16.934Z,29.5
2018-11-06T18:15:17.034Z,30.4
2018-11-06T18:20:17.398Z,29.9
2018-11-06T18:25:17.471Z,32.7
2018-11-06T18:30:17.938Z,20.7
2018-11-06T18:35:16.986Z,30.2
2018-11-06T18:40:17.102Z,30.3
2018-11-06T18:45:17.211Z,30.4
2018-11-06T18:50:22.335Z,29
2018-11-06T18:55:17.234Z,30.3
2018-11-06T19:00:17.154Z,22.1
2018-11-06T19:05:17.034Z,29.1
2018-11-06T19:10:17.354Z,30.9
2018-11-06T19:15:17.254Z,29
2018-11-06T19:20:17.422Z,27.7
2018-11-06T19:25:17.570Z,28.7
2018-11-06T19:30:17.589Z,27.1
2018-11-06T19:35:17.750Z,31.6
2018-11-06T19:40:16.896Z,30.2
2018-11-06T19:45:16.952Z,30.7
2018-11-06T19:50:17.096Z,28.5
2018-11-06T19:55:17.315Z,26.2
2018-11-06T20:00:17.519Z,28.8
2018-11-06T20:05:17.556Z,28.3
2018-11-06T20:10:17.002Z,17.5
2018-11-06T20:15:17.365Z,28.4
2018-11-06T20:20:16.747Z,24.8
2018-11-06T20:25:16.746Z,30
2018-11-06T20:30:17.826Z,29.8
2018-11-06T20:35:17.072Z,30.2
2018-11-06T20:40:17.343Z,28.7
2018-11-06T20:45:17.230Z,40.5
2018-11-06T20:50:17.162Z,31.7
2018-11-06T20:55:17.133Z,22.4
2018-11-06T21:00:22.194Z,34.4
2018-11-06T21:05:17.406Z,32.8
2018-11-06T21:10:17.527Z,34.5
2018-11-06T21:15:17.366Z,26.5
2018-11-06T21:20:17.788Z,33.9
2018-11-06T21:25:17.404Z,31.8
2018-11-06T21:30:17.421Z,33
2018-11-06T21:35:17.426Z,35.3
2018-11-06T21:40:17.614Z,22.7
2018-11-06T21:45:17.609Z,34.7
2018-11-06T21:50:16.846Z,35.8
2018-11-06T21:55:16.935Z,31.7
2018-11-06T22:00:16.939Z,26.8
2018-11-06T22:05:17.522Z,32.1
2018-11-06T22:10:17.676Z,33.5
2018-11-06T22:15:17.796Z,31.3
2018-11-06T22:20:16.851Z,29.6
2018-11-06T22:25:16.779Z,33.8
2018-11-06T22:30:16.787Z,32.3
2018-11-06T22:35:16.754Z,21.3
2018-11-06T22:40:16.963Z,34.8
2018-11-06T22:45:17.059Z,24
2018-11-06T22:50:17.070Z,32.8
2018-11-06T22:55:17.298Z,39.2
2018-11-06T23:00:17.421Z,31.3
2018-11-06T23:05:17.601Z,32.8
2018-11-06T23:10:16.688Z,33.5
2018-11-06T23:15:17.785Z,32.1
2018-11-06T23:20:17.193Z,16.5
2018-11-06T23:25:17.038Z,33.8
2018-11-06T23:30:16.918Z,14.9
2018-11-06T23:35:16.859Z,33.7
2018-11-06T23:40:17.182Z,27.8
2018-11-06T23:45:17.574Z,33.8
2018-11-06T23:50:17.447Z,20.7
2018-11-06T23:55:17.470Z,34.3
